Time;durP1;ratioP1;P1;durP2;ratioP2;P2;SDS_P1;SDS_P2;PMS_P1;PMS_P2;Temp;Humidity;BMP_temperature;BMP_pressure;BME280_temperature;BME280_humidity;BME280_pressure;Samples;Min_cycle;Max_cycle;Signal;HPM_P1;HPM_P2
2022/05/20 00:01:49;;;;;;;22.10;20.30;;;18.00;80.40;;;;;;5137126;28;20428;-76
2022/05/20 00:04:16;;;;;;;22.90;21.00;;;18.00;81.30;;;;;;5136410;28;20469;-75
2022/05/20 00:06:43;;;;;;;22.50;20.70;;;18.00;81.90;;;;;;5132116;28;20432;-75
2022/05/20 00:09:11;;;;;;;21.20;19.40;;;18.00;81.60;;;;;;5132772;27;20740;-76
2022/05/20 00:11:38;;;;;;;22.10;20.20;;;18.00;81.90;;;;;;5126592;27;20481;-76
2022/05/20 00:14:05;;;;;;;21.80;20.10;;;18.00;81.40;;;;;;5094269;28;20428;-75
2022/05/20 00:16:34;;;;;;;19.92;18.42;;;18.00;82.20;;;;;;5090498;28;20428;-75
2022/05/20 00:19:01;;;;;;;22.08;20.38;;;18.00;82.10;;;;;;5089297;28;21058;-74
2022/05/20 00:21:28;;;;;;;21.20;19.50;;;18.00;82.70;;;;;;5089553;28;20443;-74
2022/05/20 00:23:55;;;;;;;21.20;19.50;;;18.00;82.50;;;;;;5091316;28;20437;-75
2022/05/20 00:26:23;;;;;;;21.38;19.65;;;18.00;82.50;;;;;;5097503;28;20432;-75
2022/05/20 00:28:50;;;;;;;21.80;20.10;;;18.00;82.60;;;;;;5097352;27;20432;-74
2022/05/20 00:31:17;;;;;;;22.48;20.58;;;18.10;81.90;;;;;;5101294;28;20461;-75
2022/05/20 00:33:44;;;;;;;21.52;19.90;;;18.10;81.90;;;;;;5106585;27;20432;-76
2022/05/20 00:36:11;;;;;;;22.85;20.88;;;18.10;82.50;;;;;;5111359;27;20946;-73
2022/05/20 00:38:38;;;;;;;23.08;21.25;;;18.00;81.80;;;;;;5107146;27;20490;-74
2022/05/20 00:41:06;;;;;;;22.88;20.88;;;18.00;82.50;;;;;;5114021;27;20483;-74
2022/05/20 00:43:38;;;;;;;23.83;21.70;;;18.00;82.70;;;;;;5107877;28;20495;-75
2022/05/20 00:46:07;;;;;;;23.52;21.63;;;18.00;81.90;;;;;;5107472;27;22525;-76
2022/05/20 00:48:34;;;;;;;24.77;22.67;;;17.90;82.20;;;;;;5105803;27;20461;-76
2022/05/20 00:51:06;;;;;;;24.55;22.38;;;17.90;82.10;;;;;;5113774;27;20845;-76
2022/05/20 00:53:38;;;;;;;22.85;21.00;;;17.80;82.60;;;;;;5120994;27;20928;-75
2022/05/20 00:56:06;;;;;;;25.60;23.55;;;17.80;83.00;;;;;;5133516;27;20426;-76
2022/05/20 00:58:33;;;;;;;24.25;22.25;;;17.80;83.20;;;;;;5111947;27;20424;-77
2022/05/20 01:01:04;;;;;;;23.95;22.05;;;17.80;83.50;;;;;;5113533;27;20444;-75
2022/05/20 01:03:31;;;;;;;24.95;22.85;;;17.70;83.50;;;;;;5121513;27;20476;-75
2022/05/20 01:05:59;;;;;;;24.50;22.50;;;17.80;84.60;;;;;;5116133;28;20925;-76
2022/05/20 01:08:32;;;;;;;23.85;21.88;;;17.80;84.70;;;;;;5113311;27;20486;-76
2022/05/20 01:11:00;;;;;;;23.58;21.77;;;17.80;84.80;;;;;;5123311;27;20491;-76
2022/05/20 01:13:30;;;;;;;22.20;20.40;;;17.80;83.70;;;;;;5110041;27;20496;-74
2022/05/20 01:15:57;;;;;;;20.27;18.60;;;17.90;83.90;;;;;;5111149;28;20428;-74
2022/05/20 01:18:26;;;;;;;19.90;18.20;;;17.90;82.30;;;;;;5117103;27;20420;-74
2022/05/20 01:20:55;;;;;;;20.52;18.63;;;17.80;81.30;;;;;;5116312;27;20459;-75
2022/05/20 01:23:26;;;;;;;20.80;19.10;;;17.80;81.30;;;;;;5122787;27;20471;-74
2022/05/20 01:25:54;;;;;;;20.80;19.00;;;17.80;80.30;;;;;;5119788;27;20426;-74
2022/05/20 01:28:23;;;;;;;20.50;18.80;;;17.70;80.30;;;;;;5108520;27;20424;-75
2022/05/20 01:30:52;;;;;;;20.10;18.40;;;17.60;81.40;;;;;;5118039;27;20447;-75
2022/05/20 01:33:23;;;;;;;21.03;19.30;;;17.70;82.00;;;;;;5109244;27;20459;-75
2022/05/20 01:35:50;;;;;;;19.67;18.00;;;17.70;81.40;;;;;;5109821;27;20988;-74
2022/05/20 01:38:17;;;;;;;19.83;18.15;;;17.60;81.00;;;;;;5106198;27;20449;-75
2022/05/20 01:40:48;;;;;;;21.02;19.33;;;17.60;80.70;;;;;;5134803;27;20414;-74
2022/05/20 01:43:26;;;;;;;20.60;18.80;;;17.60;81.40;;;;;;5104932;28;20424;-75
2022/05/20 01:46:00;;;;;;;20.90;19.13;;;17.60;80.90;;;;;;5129762;27;20442;-75
2022/05/20 01:48:31;;;;;;;19.98;18.13;;;17.50;81.40;;;;;;5121494;27;20475;-75
2022/05/20 01:50:57;;;;;;;21.13;19.38;;;17.50;82.20;;;;;;5106037;27;20432;-75
2022/05/20 01:53:31;;;;;;;21.15;19.35;;;17.50;81.80;;;;;;5114087;27;20500;-74
2022/05/20 01:56:05;;;;;;;20.70;19.00;;;17.60;81.90;;;;;;5103044;28;20437;-75
2022/05/20 01:58:38;;;;;;;20.23;18.42;;;17.60;81.40;;;;;;5099558;28;20428;-74
2022/05/20 02:01:09;;;;;;;20.80;19.00;;;17.60;82.10;;;;;;5108590;27;20423;-74
2022/05/20 02:03:41;;;;;;;20.43;18.63;;;17.70;81.40;;;;;;5105874;28;20428;-75
2022/05/20 02:06:13;;;;;;;20.83;19.13;;;17.70;82.20;;;;;;5113279;27;20433;-75
2022/05/20 02:08:44;;;;;;;20.27;18.50;;;17.70;82.50;;;;;;5110877;27;20432;-75
2022/05/20 02:11:16;;;;;;;21.77;19.98;;;17.70;81.70;;;;;;5109993;27;21014;-74
2022/05/20 02:13:50;;;;;;;21.13;19.33;;;17.70;81.60;;;;;;5108099;27;20420;-76
2022/05/20 02:16:21;;;;;;;21.48;19.67;;;17.60;81.10;;;;;;5109749;27;20426;-75
2022/05/20 02:18:52;;;;;;;20.83;18.92;;;17.60;82.00;;;;;;5106611;27;20432;-76
2022/05/20 02:21:23;;;;;;;20.55;18.75;;;17.60;82.30;;;;;;5106436;28;20920;-74
2022/05/20 02:23:54;;;;;;;20.33;18.55;;;17.60;83.00;;;;;;5132475;27;20436;-74
2022/05/20 02:26:27;;;;;;;20.30;18.60;;;17.60;82.60;;;;;;5121718;27;20418;-75
2022/05/20 02:28:58;;;;;;;20.55;18.63;;;17.60;82.80;;;;;;5106226;28;20427;-75
2022/05/20 02:31:30;;;;;;;20.30;18.60;;;17.60;82.60;;;;;;5117063;28;20435;-76
2022/05/20 02:33:57;;;;;;;20.70;19.00;;;17.60;82.80;;;;;;5108779;28;20422;-76
2022/05/20 02:36:31;;;;;;;19.83;18.13;;;17.60;82.10;;;;;;5112978;28;20423;-76
2022/05/20 02:38:58;;;;;;;20.63;18.85;;;17.70;81.90;;;;;;5101889;28;20426;-76
2022/05/20 02:41:26;;;;;;;21.15;19.30;;;17.70;82.00;;;;;;5136724;22;20773;-68
2022/05/20 02:43:53;;;;;;;21.10;19.30;;;17.60;81.90;;;;;;5094474;28;22461;-67
2022/05/20 02:46:20;;;;;;;21.10;19.30;;;17.60;82.50;;;;;;5098047;28;20523;-68
2022/05/20 02:48:46;;;;;;;22.13;20.33;;;17.60;82.60;;;;;;5096131;28;20424;-66
2022/05/20 02:51:16;;;;;;;22.08;20.17;;;17.70;82.60;;;;;;5097945;28;20437;-67
2022/05/20 02:53:43;;;;;;;23.77;21.57;;;17.70;82.40;;;;;;5101643;28;20912;-67
2022/05/20 02:56:10;;;;;;;22.57;20.73;;;17.70;82.30;;;;;;5100512;28;20431;-68
2022/05/20 03:04:12;;;;;;;23.17;21.17;;;17.70;81.70;;;;;;5100101;28;20539;-66
2022/05/20 03:06:41;;;;;;;23.45;21.45;;;17.70;82.40;;;;;;5105559;28;20438;-67
2022/05/20 03:09:10;;;;;;;23.80;21.63;;;17.70;82.50;;;;;;5091027;28;20426;-67
2022/05/20 03:11:39;;;;;;;25.23;23.03;;;17.70;81.90;;;;;;5100427;28;20519;-66
2022/05/20 03:14:09;;;;;;;24.40;22.20;;;17.70;82.10;;;;;;5099963;28;20443;-67
2022/05/20 03:16:37;;;;;;;26.20;23.80;;;17.70;82.50;;;;;;5102672;28;21287;-67
2022/05/20 03:19:04;;;;;;;25.40;23.25;;;17.70;83.20;;;;;;5103585;28;20436;-68
2022/05/20 03:21:31;;;;;;;26.15;23.85;;;17.70;83.00;;;;;;5105380;28;20432;-65
2022/05/20 03:23:59;;;;;;;26.48;24.27;;;17.70;82.80;;;;;;5103353;28;20797;-67
2022/05/20 03:26:27;;;;;;;28.15;25.70;;;17.60;83.20;;;;;;5102188;28;20449;-67
2022/05/20 03:28:53;;;;;;;30.83;28.13;;;17.60;83.50;;;;;;5096825;28;20446;-67
2022/05/20 03:31:21;;;;;;;28.73;26.33;;;17.60;83.80;;;;;;5099625;28;20438;-67
2022/05/20 03:33:48;;;;;;;28.48;26.08;;;17.60;83.80;;;;;;5106541;28;20504;-67
2022/05/20 03:36:15;;;;;;;27.85;25.35;;;17.60;83.50;;;;;;5099256;28;20489;-67
2022/05/20 03:38:42;;;;;;;27.00;24.70;;;17.60;83.60;;;;;;5097292;28;20437;-67
2022/05/20 03:41:09;;;;;;;26.90;24.65;;;17.50;84.20;;;;;;5100882;28;20893;-67
2022/05/20 03:43:36;;;;;;;27.00;24.40;;;17.60;83.90;;;;;;5103856;28;20887;-66
2022/05/20 03:46:03;;;;;;;27.25;24.85;;;17.50;84.60;;;;;;5104828;28;20535;-67
2022/05/20 03:48:31;;;;;;;30.40;27.65;;;17.50;84.40;;;;;;5097605;28;20426;-67
2022/05/20 03:51:07;;;;;;;32.33;29.40;;;17.50;84.20;;;;;;5099504;28;20457;-67
2022/05/20 03:53:34;;;;;;;29.42;26.83;;;17.50;84.50;;;;;;5103859;28;20440;-67
2022/05/20 03:56:01;;;;;;;30.10;27.40;;;17.40;84.60;;;;;;5101568;28;20546;-68
2022/05/20 03:58:27;;;;;;;30.00;27.20;;;17.40;84.70;;;;;;5097212;28;20435;-67
2022/05/20 04:03:43;;;;;;;30.20;27.48;;;17.40;84.90;;;;;;5097352;28;20430;-67
2022/05/20 04:06:09;;;;;;;31.83;29.00;;;17.40;84.70;;;;;;5105014;28;20942;-67
2022/05/20 04:08:36;;;;;;;28.10;25.70;;;17.30;84.60;;;;;;5100491;28;20508;-67
2022/05/20 04:11:03;;;;;;;29.97;27.20;;;17.30;84.90;;;;;;5101088;28;20560;-65
2022/05/20 04:13:29;;;;;;;32.20;29.20;;;17.30;84.70;;;;;;5099320;28;20442;-67
2022/05/20 04:15:56;;;;;;;29.38;26.67;;;17.30;84.30;;;;;;5097310;28;20537;-66
2022/05/20 04:18:23;;;;;;;30.17;27.38;;;17.30;84.20;;;;;;5102030;28;20538;-67
2022/05/20 04:20:51;;;;;;;29.88;27.27;;;17.30;83.90;;;;;;5106191;28;20942;-67
2022/05/20 04:23:20;;;;;;;31.48;28.58;;;17.30;83.90;;;;;;5105370;28;20484;-65
2022/05/20 04:25:47;;;;;;;31.80;28.85;;;17.30;83.50;;;;;;5104222;28;20460;-67
2022/05/20 04:28:14;;;;;;;31.75;28.95;;;17.30;83.60;;;;;;5101152;28;20443;-67
2022/05/20 04:30:41;;;;;;;32.00;29.02;;;17.30;83.80;;;;;;5102837;28;20885;-67
2022/05/20 04:33:07;;;;;;;30.50;27.80;;;17.30;83.90;;;;;;5103907;28;20537;-67
2022/05/20 04:35:34;;;;;;;32.40;29.50;;;17.30;84.10;;;;;;5103199;28;20534;-67
2022/05/20 04:38:02;;;;;;;31.20;28.40;;;17.20;84.00;;;;;;5105463;28;20416;-67
2022/05/20 04:40:29;;;;;;;31.73;28.83;;;17.20;84.40;;;;;;5101479;28;20428;-65
2022/05/20 04:48:29;;;;;;;31.88;29.08;;;17.30;85.20;;;;;;5098519;28;20452;-66
2022/05/20 04:50:56;;;;;;;30.65;28.02;;;17.40;84.70;;;;;;5095757;28;20568;-66
2022/05/20 04:56:08;;;;;;;32.63;29.42;;;17.40;84.20;;;;;;5097194;27;20443;-69
2022/05/20 04:58:35;;;;;;;33.78;30.65;;;17.40;83.70;;;;;;5091428;28;20436;-67
2022/05/20 05:01:02;;;;;;;32.45;29.63;;;17.50;83.50;;;;;;5093748;28;20432;-68
2022/05/20 05:03:29;;;;;;;31.90;29.00;;;17.40;83.40;;;;;;5099806;28;20477;-68
2022/05/20 05:05:56;;;;;;;30.70;27.90;;;17.50;83.30;;;;;;5099608;28;20424;-68
2022/05/20 05:08:24;;;;;;;30.40;27.70;;;17.50;83.60;;;;;;5094839;28;20520;-70
2022/05/20 05:10:52;;;;;;;31.60;28.70;;;17.60;84.20;;;;;;5099789;28;20771;-70
2022/05/20 05:13:19;;;;;;;31.27;28.58;;;17.70;83.90;;;;;;5093073;28;20511;-68
2022/05/20 05:15:45;;;;;;;31.50;28.60;;;17.70;83.30;;;;;;5093428;28;20436;-67
2022/05/20 05:18:13;;;;;;;30.60;27.90;;;17.80;83.20;;;;;;5091562;28;20432;-69
2022/05/20 05:20:46;;;;;;;31.10;28.50;;;17.90;83.20;;;;;;5093472;28;20958;-69
2022/05/20 05:23:13;;;;;;;30.50;28.00;;;18.00;83.20;;;;;;5096905;28;20552;-70
2022/05/20 05:25:42;;;;;;;29.63;26.90;;;18.00;82.90;;;;;;5090426;28;20442;-67
2022/05/20 05:28:09;;;;;;;33.80;30.67;;;18.20;82.30;;;;;;5091232;28;20481;-71
2022/05/20 05:30:36;;;;;;;31.45;28.55;;;18.30;82.00;;;;;;5095457;28;20428;-70
2022/05/20 05:33:03;;;;;;;31.00;28.20;;;18.30;81.80;;;;;;5101246;28;20550;-69
2022/05/20 05:35:32;;;;;;;29.15;26.65;;;18.50;81.50;;;;;;5095058;28;20453;-69
2022/05/20 05:37:59;;;;;;;30.45;27.75;;;18.50;81.10;;;;;;5090344;28;20431;-69
2022/05/20 05:40:28;;;;;;;31.70;28.90;;;18.60;81.10;;;;;;5097328;28;20506;-69
2022/05/20 05:42:59;;;;;;;28.98;26.45;;;18.50;81.10;;;;;;5092638;28;20436;-69
2022/05/20 05:45:27;;;;;;;30.23;27.53;;;18.50;81.50;;;;;;5088771;28;20518;-68
2022/05/20 05:47:56;;;;;;;29.60;27.00;;;18.60;81.10;;;;;;5099393;28;20428;-69
2022/05/20 05:50:23;;;;;;;30.70;28.00;;;18.60;81.60;;;;;;5092691;28;20429;-68
2022/05/20 05:52:55;;;;;;;32.55;29.75;;;18.60;81.50;;;;;;5089833;28;20440;-69
2022/05/20 05:55:22;;;;;;;31.10;28.60;;;18.60;81.60;;;;;;5099397;28;20447;-68
2022/05/20 05:57:49;;;;;;;32.13;29.30;;;18.70;81.60;;;;;;5104961;27;20480;-68
2022/05/20 06:00:18;;;;;;;32.22;29.35;;;18.70;80.90;;;;;;5095996;28;20501;-68
2022/05/20 06:02:45;;;;;;;32.50;29.70;;;18.70;81.30;;;;;;5091327;28;20422;-68
2022/05/20 06:05:12;;;;;;;32.08;29.27;;;18.80;81.60;;;;;;5092425;28;20429;-68
2022/05/20 06:07:39;;;;;;;34.25;31.15;;;18.90;81.50;;;;;;5095691;28;20490;-69
2022/05/20 06:10:06;;;;;;;35.45;32.13;;;18.80;81.70;;;;;;5097956;28;20424;-70
2022/05/20 06:12:33;;;;;;;35.33;32.17;;;18.70;82.20;;;;;;5101884;28;20465;-67
2022/05/20 06:15:03;;;;;;;35.35;32.28;;;18.60;82.40;;;;;;5085424;28;20449;-67
2022/05/20 06:17:32;;;;;;;36.25;32.95;;;18.50;82.90;;;;;;5097653;28;20496;-70
2022/05/20 06:19:59;;;;;;;34.22;31.23;;;18.50;83.30;;;;;;5095071;28;20418;-68
2022/05/20 06:22:26;;;;;;;36.42;33.03;;;18.50;83.90;;;;;;5096719;28;20457;-70
2022/05/20 06:24:53;;;;;;;34.58;31.48;;;18.60;83.60;;;;;;5098785;28;20435;-71
2022/05/20 06:27:19;;;;;;;35.03;31.80;;;18.70;82.40;;;;;;5089652;28;20829;-69
2022/05/20 06:29:48;;;;;;;32.20;29.40;;;18.80;82.30;;;;;;5097317;28;20516;-67
2022/05/20 06:32:14;;;;;;;32.55;29.75;;;18.80;82.20;;;;;;5101654;28;20953;-67
2022/05/20 06:40:17;;;;;;;32.30;29.50;;;18.90;81.80;;;;;;5092281;28;20413;-70
2022/05/20 06:42:44;;;;;;;32.70;29.90;;;19.00;81.70;;;;;;5100379;28;20483;-69
2022/05/20 06:45:12;;;;;;;33.05;30.05;;;19.10;80.60;;;;;;5094206;28;20428;-67
2022/05/20 06:47:39;;;;;;;32.60;29.80;;;19.10;80.80;;;;;;5101743;28;20484;-68
2022/05/20 06:50:09;;;;;;;31.77;28.98;;;19.00;80.20;;;;;;5095469;28;20933;-67
2022/05/20 06:52:35;;;;;;;34.78;31.67;;;19.00;81.40;;;;;;5095658;28;20428;-68
2022/05/20 06:55:02;;;;;;;32.88;29.98;;;18.90;81.50;;;;;;5098872;28;20458;-69
2022/05/20 06:57:29;;;;;;;35.38;32.17;;;18.90;82.60;;;;;;5100702;28;20897;-69
2022/05/20 06:59:56;;;;;;;36.42;33.03;;;18.90;82.20;;;;;;5090803;28;20450;-66
2022/05/20 07:02:22;;;;;;;36.40;33.33;;;18.90;82.30;;;;;;5099381;28;20501;-69
2022/05/20 07:04:49;;;;;;;36.97;33.63;;;18.80;82.60;;;;;;5099372;28;20856;-69
2022/05/20 07:07:17;;;;;;;38.10;34.65;;;18.80;83.00;;;;;;5091666;28;20822;-70
2022/05/20 07:09:44;;;;;;;40.78;37.13;;;18.80;82.80;;;;;;5094595;28;21179;-69
2022/05/20 07:12:11;;;;;;;42.58;38.65;;;18.80;82.50;;;;;;5100045;28;20510;-69
2022/05/20 07:14:38;;;;;;;44.60;40.42;;;18.80;82.70;;;;;;5092473;28;20435;-69
2022/05/20 07:17:05;;;;;;;45.03;41.03;;;18.80;83.00;;;;;;5099953;28;20500;-69
2022/05/20 07:19:32;;;;;;;45.63;41.63;;;18.80;83.10;;;;;;5094280;28;20544;-69
2022/05/20 07:21:59;;;;;;;44.08;40.17;;;18.80;83.00;;;;;;5100127;28;20816;-70
2022/05/20 07:24:27;;;;;;;42.67;38.78;;;18.70;83.40;;;;;;5091191;28;20459;-69
2022/05/20 07:26:54;;;;;;;43.10;39.20;;;18.80;83.80;;;;;;5090420;28;20469;-70
2022/05/20 07:29:21;;;;;;;40.05;36.35;;;19.00;82.40;;;;;;5101175;28;20453;-69
2022/05/20 07:31:48;;;;;;;41.83;38.03;;;19.00;82.50;;;;;;5094644;28;20443;-69
2022/05/20 07:34:15;;;;;;;38.40;34.80;;;19.10;82.90;;;;;;5090976;28;20512;-70
2022/05/20 07:36:41;;;;;;;35.65;32.25;;;19.20;82.90;;;;;;5096827;28;20445;-69
2022/05/20 07:39:08;;;;;;;34.03;30.92;;;19.30;82.90;;;;;;5096055;28;20436;-69
2022/05/20 07:41:36;;;;;;;34.63;31.53;;;19.50;82.70;;;;;;5100471;28;20566;-68
2022/05/20 07:44:03;;;;;;;33.10;30.10;;;19.70;81.00;;;;;;5090451;28;20980;-69
2022/05/20 07:46:30;;;;;;;31.40;28.50;;;19.70;80.60;;;;;;5091485;28;22839;-69
2022/05/20 07:48:56;;;;;;;30.10;27.50;;;19.80;81.20;;;;;;5101296;28;20429;-69
2022/05/20 07:51:25;;;;;;;31.38;28.58;;;19.90;80.00;;;;;;5098307;28;20508;-67
2022/05/20 07:53:55;;;;;;;30.08;27.38;;;20.00;79.00;;;;;;5105111;28;20423;-69
2022/05/20 07:56:25;;;;;;;30.77;28.05;;;20.00;78.60;;;;;;5099039;28;20420;-69
2022/05/20 07:58:58;;;;;;;29.90;27.10;;;20.10;78.60;;;;;;5093418;28;20431;-69
2022/05/20 08:01:28;;;;;;;31.00;28.15;;;20.10;78.20;;;;;;5094715;28;20424;-67
2022/05/20 08:06:43;;;;;;;30.10;27.20;;;20.00;79.00;;;;;;5104293;28;20976;-69
2022/05/20 08:09:10;;;;;;;30.83;27.93;;;19.90;78.50;;;;;;5099703;28;20433;-68
2022/05/20 08:11:37;;;;;;;31.02;28.02;;;20.00;79.20;;;;;;5104959;28;20496;-68
2022/05/20 08:14:05;;;;;;;28.35;25.70;;;20.00;79.30;;;;;;5095319;28;21125;-69
2022/05/20 08:16:32;;;;;;;28.85;26.05;;;20.30;79.10;;;;;;5098023;28;20837;-69
2022/05/20 08:18:58;;;;;;;28.58;25.88;;;20.70;77.10;;;;;;5102294;28;22247;-68
2022/05/20 08:21:25;;;;;;;29.30;26.45;;;21.10;75.10;;;;;;5095776;28;20430;-68
2022/05/20 08:23:52;;;;;;;27.38;24.77;;;21.20;74.20;;;;;;5094361;28;20432;-68
2022/05/20 08:26:18;;;;;;;28.30;25.70;;;21.10;75.40;;;;;;5104916;28;20894;-69
2022/05/20 08:28:46;;;;;;;28.55;25.75;;;21.10;74.60;;;;;;5104006;28;20436;-69
2022/05/20 08:31:14;;;;;;;28.70;26.10;;;21.00;75.00;;;;;;5103875;28;20510;-66
2022/05/20 08:33:40;;;;;;;26.20;23.90;;;20.90;75.80;;;;;;5105412;28;20443;-66
2022/05/20 08:36:07;;;;;;;24.50;22.30;;;21.10;75.40;;;;;;5106561;28;20419;-69
2022/05/20 08:38:34;;;;;;;25.25;23.15;;;21.10;74.20;;;;;;5102156;28;20424;-69
2022/05/20 08:41:01;;;;;;;24.70;22.40;;;21.30;73.40;;;;;;5100055;28;20437;-67
2022/05/20 08:43:31;;;;;;;24.45;22.15;;;21.50;73.40;;;;;;5101888;28;20489;-69
2022/05/20 08:45:58;;;;;;;23.48;21.23;;;21.50;72.80;;;;;;5095495;28;20543;-68
2022/05/20 08:48:26;;;;;;;25.08;22.88;;;21.50;72.10;;;;;;5105433;28;20412;-68
2022/05/20 08:50:55;;;;;;;23.33;21.23;;;21.50;72.30;;;;;;5100277;28;20503;-69
2022/05/20 08:53:26;;;;;;;22.90;20.80;;;21.50;73.20;;;;;;5096002;28;20437;-69
2022/05/20 08:55:53;;;;;;;20.80;18.90;;;21.60;73.20;;;;;;5095997;28;20432;-69
2022/05/20 08:58:24;;;;;;;21.30;19.40;;;21.90;71.70;;;;;;5102013;28;20477;-69
2022/05/20 09:00:51;;;;;;;19.65;17.85;;;22.20;70.40;;;;;;5099803;28;20431;-69
2022/05/20 09:03:17;;;;;;;19.38;17.50;;;22.30;70.30;;;;;;5096081;28;20444;-68
2022/05/20 09:05:46;;;;;;;21.00;19.15;;;22.50;69.40;;;;;;5102773;28;20420;-68
2022/05/20 09:08:22;;;;;;;19.98;18.17;;;22.50;68.40;;;;;;5096378;28;20434;-68
2022/05/20 09:10:51;;;;;;;19.38;17.58;;;22.40;70.00;;;;;;5099230;28;20428;-69
2022/05/20 09:15:43;;;;;;;20.02;18.23;;;22.50;69.20;;;;;;5101754;28;20427;-69
2022/05/20 09:16:14;;;;;;;19.77;17.98;;;22.80;68.50;;;;;;5090328;28;20808;-74
2022/05/20 09:18:43;;;;;;;18.13;16.45;;;23.00;67.50;;;;;;5100787;28;20424;-67
2022/05/20 09:21:26;;;;;;;17.65;16.15;;;23.50;67.20;;;;;;5103958;28;20471;-66
2022/05/20 09:23:55;;;;;;;16.00;14.70;;;24.20;64.50;;;;;;5106265;28;20491;-67
2022/05/20 09:26:26;;;;;;;15.05;13.93;;;24.70;62.70;;;;;;5104760;28;21287;-67
2022/05/20 09:28:58;;;;;;;15.85;14.35;;;25.10;61.10;;;;;;5105151;28;20424;-67
2022/05/20 09:31:31;;;;;;;14.20;13.00;;;25.20;59.00;;;;;;5104125;28;20443;-67
2022/05/20 09:34:10;;;;;;;14.50;13.40;;;25.40;60.30;;;;;;5102327;28;20500;-66
2022/05/20 09:36:47;;;;;;;13.82;12.73;;;25.80;57.30;;;;;;5103444;28;20424;-66
2022/05/20 09:39:17;;;;;;;12.60;11.50;;;25.80;57.30;;;;;;5098961;28;20498;-67
2022/05/20 09:41:55;;;;;;;11.75;10.75;;;25.60;57.30;;;;;;5101761;28;20416;-66
2022/05/20 09:44:25;;;;;;;11.82;10.93;;;25.40;57.70;;;;;;5101960;28;20549;-66
2022/05/20 09:46:55;;;;;;;11.77;10.77;;;25.10;57.40;;;;;;5094942;28;20437;-67
2022/05/20 09:49:33;;;;;;;12.88;11.88;;;24.80;59.30;;;;;;5100380;28;20523;-66
2022/05/20 09:52:02;;;;;;;10.90;10.10;;;24.70;59.80;;;;;;5093216;28;20440;-67
2022/05/20 09:54:32;;;;;;;10.48;9.68;;;25.10;59.20;;;;;;5103603;28;20424;-67
2022/05/20 09:57:06;;;;;;;10.10;9.20;;;25.50;57.70;;;;;;5104186;28;20432;-67
2022/05/20 09:59:46;;;;;;;9.75;9.05;;;26.00;56.80;;;;;;5092787;28;20919;-66
2022/05/20 10:02:22;;;;;;;9.43;8.63;;;26.50;56.20;;;;;;5098268;28;20483;-67
2022/05/20 10:04:58;;;;;;;10.00;9.30;;;26.80;56.40;;;;;;5097662;28;20453;-66
2022/05/20 10:07:38;;;;;;;7.88;7.18;;;27.00;54.00;;;;;;5102611;28;20520;-65
2022/05/20 10:10:10;;;;;;;8.77;7.97;;;27.10;54.90;;;;;;5102673;28;20987;-67
2022/05/20 10:12:39;;;;;;;8.48;7.78;;;27.30;52.90;;;;;;5104187;28;20453;-66
2022/05/20 10:15:14;;;;;;;6.70;6.20;;;27.40;52.40;;;;;;5102481;28;20573;-66
2022/05/20 10:17:52;;;;;;;6.45;5.95;;;27.40;52.20;;;;;;5097299;28;20481;-66
2022/05/20 10:20:25;;;;;;;6.15;5.75;;;27.50;51.50;;;;;;5102623;28;20412;-66
2022/05/20 10:23:03;;;;;;;6.80;6.30;;;27.70;51.70;;;;;;5091150;28;20500;-66
2022/05/20 10:25:36;;;;;;;6.90;6.40;;;27.70;51.30;;;;;;5102526;28;20451;-67
2022/05/20 10:28:07;;;;;;;6.30;5.80;;;27.60;51.50;;;;;;5099942;28;20431;-66
2022/05/20 10:33:27;;;;;;;5.93;5.53;;;28.30;50.60;;;;;;5096605;28;20493;-64
2022/05/20 10:36:05;;;;;;;5.50;5.10;;;28.60;49.50;;;;;;5087726;28;20424;-66
2022/05/20 10:38:59;;;;;;;5.72;5.22;;;28.60;49.10;;;;;;5095392;28;20496;-68
2022/05/20 10:41:42;;;;;;;5.32;4.93;;;28.70;48.60;;;;;;5101293;28;20493;-66
2022/05/20 10:50:24;;;;;;;5.53;5.13;;;28.60;49.40;;;;;;5097819;28;20496;-69
2022/05/20 10:53:07;;;;;;;6.00;5.60;;;28.30;49.90;;;;;;5092048;28;20485;-66
2022/05/20 10:55:52;;;;;;;5.85;5.45;;;28.10;51.00;;;;;;5098398;28;20482;-66
2022/05/20 10:58:37;;;;;;;6.00;5.50;;;28.00;50.80;;;;;;5103042;28;20529;-64
2022/05/20 11:01:13;;;;;;;6.18;5.68;;;27.90;51.10;;;;;;5090101;28;20900;-66
2022/05/20 11:04:07;;;;;;;6.55;6.05;;;27.70;51.50;;;;;;5099217;28;20527;-66
2022/05/20 11:06:55;;;;;;;6.40;5.80;;;27.40;52.20;;;;;;5092276;28;20535;-65
2022/05/20 11:09:30;;;;;;;6.43;5.93;;;27.20;53.30;;;;;;5104416;28;20412;-65
2022/05/20 11:12:00;;;;;;;6.45;5.95;;;27.10;53.40;;;;;;5096518;28;20938;-68
2022/05/20 11:15:17;;;;;;;6.18;5.78;;;27.10;53.50;;;;;;5104413;28;20419;-65
2022/05/20 11:17:56;;;;;;;6.43;6.03;;;27.30;53.00;;;;;;5094789;28;20477;-66
2022/05/20 11:20:44;;;;;;;6.20;5.80;;;27.40;52.80;;;;;;5098561;28;20429;-64
2022/05/20 11:23:31;;;;;;;7.30;6.60;;;27.50;53.00;;;;;;5096427;28;20446;-66
2022/05/20 11:26:22;;;;;;;7.00;6.50;;;27.30;53.50;;;;;;5102096;28;20435;-66
2022/05/20 11:29:19;;;;;;;6.22;5.72;;;27.10;53.30;;;;;;5102270;28;20516;-66
2022/05/20 11:31:51;;;;;;;7.20;6.60;;;26.90;55.40;;;;;;5098355;28;20927;-66
2022/05/20 11:34:43;;;;;;;7.15;6.60;;;26.80;54.50;;;;;;5096541;28;20429;-67
2022/05/20 11:37:57;;;;;;;7.90;7.30;;;26.50;55.00;;;;;;5097152;28;20434;-68
2022/05/20 11:40:58;;;;;;;8.13;7.53;;;26.30;56.00;;;;;;5076801;28;20473;-68
2022/05/20 11:43:46;;;;;;;8.23;7.60;;;26.20;56.80;;;;;;5107612;28;21481;-68
2022/05/20 11:46:28;;;;;;;6.97;6.37;;;26.10;57.30;;;;;;5097808;28;20523;-68
2022/05/20 11:49:35;;;;;;;7.35;6.75;;;26.10;57.60;;;;;;5097582;28;20412;-65
2022/05/20 11:52:24;;;;;;;7.50;6.90;;;26.30;56.90;;;;;;5039893;28;20436;-66
2022/05/20 11:54:55;;;;;;;7.10;6.60;;;26.50;56.60;;;;;;5100001;28;20511;-67
2022/05/20 11:57:26;;;;;;;7.53;6.82;;;26.60;56.40;;;;;;5106951;28;20480;-66
2022/05/20 12:00:00;;;;;;;7.00;6.40;;;26.70;56.30;;;;;;5101019;28;20461;-66
2022/05/20 12:02:29;;;;;;;6.75;6.15;;;26.50;56.90;;;;;;5105670;28;20845;-67
2022/05/20 12:04:57;;;;;;;6.05;5.55;;;26.40;57.50;;;;;;5099970;28;20485;-67
2022/05/20 12:07:25;;;;;;;6.57;5.97;;;26.50;59.30;;;;;;5107101;28;20898;-66
2022/05/20 12:09:54;;;;;;;6.20;5.70;;;26.50;57.20;;;;;;5103102;28;20431;-66
2022/05/20 12:12:25;;;;;;;6.03;5.53;;;26.40;57.10;;;;;;5107333;28;20428;-67
2022/05/20 12:15:09;;;;;;;6.47;5.97;;;26.20;57.50;;;;;;5105939;28;20467;-68
2022/05/20 12:17:39;;;;;;;6.80;6.30;;;25.90;59.00;;;;;;5098794;28;20430;-67
2022/05/20 12:26:26;;;;;;;7.32;6.80;;;25.40;60.80;;;;;;5101030;28;21016;-65
2022/05/20 12:28:53;;;;;;;8.30;7.50;;;25.10;62.00;;;;;;5107342;28;20420;-67
2022/05/20 12:31:39;;;;;;;8.60;7.90;;;24.90;64.10;;;;;;5105052;28;20494;-65
2022/05/20 12:34:10;;;;;;;9.05;8.35;;;24.60;67.60;;;;;;5100086;28;20428;-67
2022/05/20 12:36:39;;;;;;;10.73;9.73;;;24.20;70.00;;;;;;5104747;28;20941;-67
2022/05/20 12:39:49;;;;;;;12.13;11.02;;;23.70;73.90;;;;;;5095268;28;21048;-67
2022/05/20 12:42:22;;;;;;;12.70;11.70;;;22.90;80.20;;;;;;5093992;28;21002;-67
2022/05/20 12:44:49;;;;;;;13.80;12.77;;;22.20;81.00;;;;;;5100731;28;20483;-66
2022/05/20 12:47:27;;;;;;;14.93;13.82;;;21.90;84.30;;;;;;5095228;28;20426;-67
2022/05/20 12:50:04;;;;;;;15.70;14.30;;;21.70;85.10;;;;;;5094570;28;20431;-66
2022/05/20 12:52:33;;;;;;;14.50;13.40;;;21.60;86.30;;;;;;5101309;28;20428;-66
2022/05/20 12:55:02;;;;;;;14.50;13.30;;;21.70;86.00;;;;;;5106708;28;20423;-66
2022/05/20 12:57:30;;;;;;;14.27;13.07;;;21.60;86.40;;;;;;5104117;28;20443;-66
2022/05/20 13:00:01;;;;;;;14.07;12.93;;;21.60;85.80;;;;;;5103288;28;20481;-65
2022/05/20 13:02:33;;;;;;;14.63;13.52;;;21.60;86.50;;;;;;5094490;28;20508;-67
2022/05/20 13:05:05;;;;;;;13.88;12.73;;;21.70;87.20;;;;;;5094949;28;20424;-67
2022/05/20 13:07:34;;;;;;;13.90;12.80;;;21.80;87.00;;;;;;5102620;28;20416;-66
2022/05/20 13:10:20;;;;;;;13.32;12.43;;;21.90;86.40;;;;;;5105805;28;20408;-66
2022/05/20 13:12:49;;;;;;;14.00;12.90;;;21.90;85.60;;;;;;5105373;28;20501;-66
2022/05/20 13:15:19;;;;;;;12.70;11.70;;;22.00;86.20;;;;;;5104813;28;20432;-67
2022/05/20 13:17:51;;;;;;;11.90;11.00;;;22.00;85.30;;;;;;5102445;28;20502;-65
2022/05/20 13:20:19;;;;;;;12.50;11.60;;;22.20;85.00;;;;;;5091810;28;20602;-67
2022/05/20 13:22:50;;;;;;;12.77;11.77;;;22.30;85.70;;;;;;5102125;28;20929;-68
2022/05/20 13:25:18;;;;;;;12.23;11.23;;;22.50;86.20;;;;;;5099442;28;20432;-66
2022/05/20 13:27:46;;;;;;;11.73;10.93;;;22.60;84.70;;;;;;5097988;28;20477;-68
2022/05/20 13:30:18;;;;;;;10.88;10.00;;;22.80;83.70;;;;;;5103439;28;20439;-68